createdAt,value
2018-05-02T00:02:08.069Z,68.76
2018-05-02T00:04:38.852Z,69.53
2018-05-02T00:07:09.564Z,69.26
2018-05-02T00:09:40.276Z,68.99
2018-05-02T00:12:11.080Z,70.69
2018-05-02T00:14:41.857Z,69.89
2018-05-02T00:17:12.609Z,69.92
2018-05-02T00:19:43.337Z,69.36
2018-05-02T00:22:14.098Z,69.67
2018-05-02T00:24:44.916Z,69.97
2018-05-02T00:27:15.618Z,70.22
2018-05-02T00:29:46.347Z,70.99
2018-05-02T00:32:17.056Z,71.14
2018-05-02T00:34:47.872Z,71.50
2018-05-02T00:37:18.542Z,71.89
2018-05-02T00:39:49.297Z,72.12
2018-05-02T00:42:20.063Z,71.78
2018-05-02T00:44:50.783Z,71.68
2018-05-02T00:47:21.518Z,71.56
2018-05-02T00:49:52.287Z,71.58
2018-05-02T00:52:23.003Z,71.84
2018-05-02T00:54:53.799Z,71.43
2018-05-02T00:57:24.485Z,71.19
2018-05-02T00:59:55.804Z,71.38
2018-05-02T01:02:26.603Z,71.97
2018-05-02T01:04:57.732Z,72.75
2018-05-02T01:07:28.563Z,72.00
2018-05-02T01:09:59.860Z,71.51
2018-05-02T01:12:30.573Z,71.29
2018-05-02T01:15:01.336Z,71.44
2018-05-02T01:17:32.104Z,71.59
2018-05-02T01:20:02.832Z,71.66
2018-05-02T01:22:33.578Z,71.97
2018-05-02T01:25:04.343Z,72.01
2018-05-02T01:27:35.153Z,72.67
2018-05-02T01:30:05.903Z,72.89
2018-05-02T01:32:36.094Z,74.19
2018-05-02T01:35:06.992Z,73.96
2018-05-02T01:37:37.668Z,73.71
2018-05-02T01:40:08.420Z,74.41
2018-05-02T01:42:39.175Z,74.75
2018-05-02T01:45:10.548Z,74.83
2018-05-02T01:47:41.346Z,75.85
2018-05-02T01:50:12.164Z,77.01
2018-05-02T01:52:42.880Z,76.63
2018-05-02T01:55:13.670Z,76.86
2018-05-02T01:57:44.412Z,76.91
2018-05-02T02:00:15.192Z,76.32
2018-05-02T02:02:45.713Z,76.19
2018-05-02T02:05:16.199Z,75.86
2018-05-02T02:07:46.952Z,75.90
2018-05-02T02:10:17.736Z,76.70
2018-05-02T02:12:48.464Z,76.44
2018-05-02T02:15:19.237Z,77.35
2018-05-02T02:17:49.972Z,77.55
2018-05-02T02:20:21.112Z,77.00
2018-05-02T02:22:51.914Z,77.25
2018-05-02T02:25:22.686Z,76.80
2018-05-02T02:27:53.454Z,77.04
2018-05-02T02:30:24.253Z,77.30
2018-05-02T02:32:55.029Z,77.48
2018-05-02T02:35:25.774Z,77.06
2018-05-02T02:37:56.629Z,77.86
2018-05-02T02:40:27.568Z,77.65
2018-05-02T02:42:58.319Z,77.31
2018-05-02T02:45:29.108Z,78.25
2018-05-02T02:47:59.813Z,78.53
2018-05-02T02:50:29.952Z,78.46
2018-05-02T02:53:00.744Z,78.95
2018-05-02T02:55:31.551Z,78.96
2018-05-02T02:58:02.360Z,78.85
2018-05-02T03:00:33.087Z,79.19
2018-05-02T03:03:03.907Z,79.43
2018-05-02T03:05:34.622Z,79.77
2018-05-02T03:08:05.408Z,79.73
2018-05-02T03:10:36.146Z,79.59
2018-05-02T03:13:06.884Z,79.56
2018-05-02T03:15:37.978Z,79.35
2018-05-02T03:18:08.513Z,79.76
2018-05-02T03:20:39.250Z,79.60
2018-05-02T03:23:09.912Z,79.43
2018-05-02T03:25:40.646Z,79.87
2018-05-02T03:28:11.343Z,80.41
2018-05-02T03:30:42.134Z,81.78
2018-05-02T03:33:12.812Z,81.28
2018-05-02T03:35:43.632Z,80.81
2018-05-02T03:38:14.443Z,80.97
2018-05-02T03:40:45.205Z,80.73
2018-05-02T03:43:16.067Z,80.60
2018-05-02T03:45:46.949Z,80.42
2018-05-02T03:48:17.683Z,79.96
2018-05-02T03:50:48.390Z,79.51
2018-05-02T03:53:19.187Z,79.25
2018-05-02T03:55:49.945Z,79.31
2018-05-02T03:58:20.759Z,79.22
2018-05-02T04:01:02.499Z,79.23
2018-05-02T04:03:44.109Z,78.25
2018-05-02T04:06:34.686Z,77.49
2018-05-02T04:09:06.213Z,77.12
2018-05-02T04:11:37.037Z,77.70
2018-05-02T04:14:07.782Z,77.69
2018-05-02T04:16:38.559Z,76.77
2018-05-02T04:19:11.979Z,75.32
2018-05-02T04:21:42.762Z,74.24
2018-05-02T04:24:13.543Z,73.25
2018-05-02T04:26:44.306Z,72.77
2018-05-02T04:29:14.903Z,72.34
2018-05-02T04:31:45.594Z,71.84
2018-05-02T04:34:16.361Z,70.92
2018-05-02T04:36:47.192Z,70.16
2018-05-02T04:39:17.911Z,70.34
2018-05-02T04:41:48.743Z,69.83
2018-05-02T04:44:19.397Z,70.00
2018-05-02T04:46:50.123Z,69.28
2018-05-02T04:49:20.898Z,69.45
2018-05-02T04:51:51.617Z,68.96
2018-05-02T04:54:22.334Z,68.75
2018-05-02T04:56:53.020Z,69.24
2018-05-02T04:59:23.148Z,68.60
2018-05-02T05:01:53.875Z,68.87
2018-05-02T05:04:24.639Z,69.17
2018-05-02T05:06:55.510Z,69.12
2018-05-02T05:09:26.369Z,68.55
2018-05-02T05:11:57.250Z,68.42
2018-05-02T05:14:27.940Z,68.10
2018-05-02T05:16:58.676Z,67.12
2018-05-02T05:19:29.416Z,66.18
2018-05-02T05:22:00.089Z,65.25
2018-05-02T05:24:30.802Z,63.46
2018-05-02T05:27:01.534Z,64.16
2018-05-02T05:29:32.257Z,64.57
2018-05-02T05:32:02.978Z,64.96
2018-05-02T05:34:33.714Z,65.14
2018-05-02T05:37:04.458Z,65.03
2018-05-02T05:39:35.162Z,63.24
2018-05-02T05:42:05.853Z,63.36
2018-05-02T05:44:36.573Z,62.96
2018-05-02T05:47:07.271Z,63.39
2018-05-02T05:49:38.044Z,63.16
2018-05-02T05:52:08.755Z,61.97
2018-05-02T05:54:39.499Z,61.83
2018-05-02T05:57:10.270Z,61.28
2018-05-02T05:59:40.990Z,59.74
2018-05-02T06:02:11.723Z,58.81
2018-05-02T06:04:42.417Z,57.58
2018-05-02T06:07:14.349Z,57.81
2018-05-02T06:09:46.417Z,56.90
2018-05-02T06:12:17.166Z,56.22
2018-05-02T06:14:47.842Z,56.76
2018-05-02T06:17:18.773Z,55.81
2018-05-02T06:19:49.514Z,56.84
2018-05-02T06:22:20.249Z,57.66
2018-05-02T06:24:52.109Z,58.60
2018-05-02T06:27:22.959Z,58.32
2018-05-02T06:29:53.822Z,59.49
2018-05-02T06:32:24.579Z,58.67
2018-05-02T06:34:55.358Z,57.38
2018-05-02T06:37:26.034Z,56.50
2018-05-02T06:39:56.803Z,57.19
2018-05-02T06:42:27.453Z,57.17
2018-05-02T06:44:58.260Z,58.52
2018-05-02T06:47:28.904Z,59.57
2018-05-02T06:50:00.070Z,59.04
2018-05-02T06:52:30.779Z,59.39
2018-05-02T06:55:01.491Z,58.76
2018-05-02T06:57:32.245Z,59.87
2018-05-02T07:00:02.996Z,59.01
2018-05-02T07:02:33.705Z,57.64
2018-05-02T07:05:04.456Z,57.23
2018-05-02T07:07:35.165Z,57.44
2018-05-02T07:10:05.938Z,57.04
2018-05-02T07:12:36.645Z,56.79
2018-05-02T07:15:07.323Z,56.15
2018-05-02T07:17:38.082Z,56.71
2018-05-02T07:20:08.806Z,56.46
2018-05-02T07:22:39.574Z,55.72
2018-05-02T07:25:10.297Z,55.32
2018-05-02T07:27:41.050Z,54.72
2018-05-02T07:30:11.793Z,54.42
2018-05-02T07:32:42.637Z,54.78
2018-05-02T07:35:13.306Z,53.08
2018-05-02T07:37:44.037Z,51.88
2018-05-02T07:40:14.798Z,52.07
2018-05-02T07:42:45.538Z,50.11
2018-05-02T07:45:16.244Z,49.82
2018-05-02T07:47:46.950Z,50.33
2018-05-02T07:50:17.695Z,50.61
2018-05-02T07:52:48.368Z,50.62
2018-05-02T07:55:19.691Z,52.44
2018-05-02T07:57:50.348Z,51.96
2018-05-02T08:00:20.534Z,52.66
2018-05-02T08:02:52.345Z,52.04
2018-05-02T08:05:23.047Z,51.20
2018-05-02T08:07:53.798Z,50.88
2018-05-02T08:10:24.482Z,51.18
2018-05-02T08:12:55.205Z,51.15
2018-05-02T08:15:25.880Z,50.87
2018-05-02T08:17:56.547Z,50.84
2018-05-02T08:20:27.275Z,51.68
2018-05-02T08:22:58.007Z,51.27
2018-05-02T08:25:28.711Z,52.32
2018-05-02T08:27:59.477Z,52.09
2018-05-02T08:30:30.238Z,53.83
2018-05-02T08:33:00.872Z,55.24
2018-05-02T08:35:31.606Z,55.26
2018-05-02T08:38:02.322Z,54.89
2018-05-02T08:40:33.086Z,55.29
2018-05-02T08:43:03.781Z,55.67
2018-05-02T08:45:34.559Z,56.17
2018-05-02T08:48:05.280Z,57.37
2018-05-02T08:50:35.968Z,58.18
2018-05-02T08:53:06.716Z,59.06
2018-05-02T08:55:37.414Z,59.02
2018-05-02T08:58:08.149Z,60.73
2018-05-02T09:00:38.937Z,60.58
2018-05-02T09:03:09.698Z,60.62
2018-05-02T09:05:40.405Z,60.91
2018-05-02T09:08:11.055Z,61.31
2018-05-02T09:10:41.757Z,61.54
2018-05-02T09:13:12.462Z,61.37
2018-05-02T09:15:43.201Z,61.65
2018-05-02T09:18:13.933Z,62.28
2018-05-02T09:20:44.641Z,61.55
2018-05-02T09:23:15.371Z,60.37
2018-05-02T09:25:46.105Z,61.15
2018-05-02T09:28:16.849Z,60.92
2018-05-02T09:30:47.567Z,61.63
2018-05-02T09:33:18.335Z,62.15
2018-05-02T09:35:49.065Z,61.40
2018-05-02T09:38:19.805Z,60.01
2018-05-02T09:40:50.498Z,60.08
2018-05-02T09:43:21.232Z,58.31
2018-05-02T09:45:51.993Z,58.53
2018-05-02T09:48:22.709Z,57.95
2018-05-02T09:50:53.408Z,58.07
2018-05-02T09:53:24.161Z,56.40
2018-05-02T09:55:54.905Z,56.11
2018-05-02T09:58:25.668Z,55.67
2018-05-02T10:00:56.428Z,54.86
2018-05-02T10:03:27.133Z,55.14
2018-05-02T10:05:57.824Z,55.79
2018-05-02T10:08:28.564Z,53.06
2018-05-02T10:10:59.329Z,50.27
2018-05-02T10:13:30.063Z,50.57
2018-05-02T10:16:00.811Z,50.34
2018-05-02T10:18:31.600Z,49.04
2018-05-02T10:21:02.285Z,49.02
2018-05-02T10:23:33.136Z,45.95
2018-05-02T10:26:04.721Z,44.77
2018-05-02T10:28:35.460Z,46.74
2018-05-02T10:31:06.221Z,45.09
2018-05-02T10:33:36.929Z,44.96
2018-05-02T10:36:07.661Z,44.70
2018-05-02T10:38:38.177Z,44.79
2018-05-02T10:41:08.983Z,45.67
2018-05-02T10:43:39.693Z,44.51
2018-05-02T10:46:10.421Z,46.07
2018-05-02T10:48:41.128Z,45.43
2018-05-02T10:51:11.861Z,44.44
2018-05-02T10:53:42.619Z,42.95
2018-05-02T10:56:13.373Z,44.94
2018-05-02T10:58:44.601Z,43.80
2018-05-02T11:01:15.795Z,44.17
2018-05-02T11:03:46.304Z,44.24
2018-05-02T11:06:17.012Z,39.93
2018-05-02T11:08:47.746Z,38.52
2018-05-02T11:11:18.501Z,39.51
2018-05-02T11:13:49.232Z,39.55
2018-05-02T11:16:20.088Z,38.34
2018-05-02T11:18:50.784Z,41.97
2018-05-02T11:21:21.574Z,42.38
2018-05-02T11:23:52.284Z,42.68
2018-05-02T11:26:23.052Z,44.13
2018-05-02T11:28:53.779Z,40.99
2018-05-02T11:31:24.545Z,39.27
2018-05-02T11:33:55.230Z,41.12
2018-05-02T11:36:25.820Z,42.79
2018-05-02T11:38:56.515Z,41.23
2018-05-02T11:41:27.367Z,41.55
2018-05-02T11:43:58.044Z,41.34
2018-05-02T11:46:28.772Z,40.59
2018-05-02T11:48:59.508Z,41.08
2018-05-02T11:51:30.192Z,40.05
2018-05-02T11:54:00.916Z,38.95
2018-05-02T11:56:31.674Z,37.57
2018-05-02T11:59:02.363Z,41.32
2018-05-02T12:01:33.108Z,39.65
2018-05-02T12:04:03.846Z,38.87
2018-05-02T12:06:34.620Z,37.01
2018-05-02T12:09:06.331Z,37.66
2018-05-02T12:11:37.064Z,37.89
2018-05-02T12:14:07.853Z,40.99
2018-05-02T12:16:38.613Z,41.73
2018-05-02T12:19:09.346Z,41.02
2018-05-02T12:21:40.162Z,39.44
2018-05-02T12:24:10.924Z,37.20
2018-05-02T12:26:41.654Z,36.25
2018-05-02T12:29:12.378Z,39.14
2018-05-02T12:31:43.143Z,38.98
2018-05-02T12:34:13.883Z,39.09
2018-05-02T12:36:44.644Z,39.19
2018-05-02T12:39:15.407Z,37.21
2018-05-02T12:41:46.102Z,39.02
2018-05-02T12:44:16.878Z,39.00
2018-05-02T12:46:47.621Z,41.24
2018-05-02T12:49:18.355Z,40.35
2018-05-02T12:51:49.106Z,38.90
2018-05-02T12:54:19.879Z,39.92
2018-05-02T12:56:50.590Z,40.30
2018-05-02T12:59:21.310Z,39.83
2018-05-02T13:01:52.095Z,40.10
2018-05-02T13:04:22.827Z,38.58
2018-05-02T13:06:53.617Z,35.63
2018-05-02T13:09:24.381Z,34.96
2018-05-02T13:11:56.259Z,38.29
2018-05-02T13:14:27.875Z,36.95
2018-05-02T13:16:59.075Z,37.93
2018-05-02T13:19:31.492Z,38.71
2018-05-02T13:22:02.303Z,37.89
2018-05-02T13:36:15.976Z,37.77
2018-05-02T13:38:47.034Z,37.64
2018-05-02T13:41:17.776Z,38.43
2018-05-02T13:43:50.043Z,38.05
2018-05-02T13:46:21.336Z,38.51
2018-05-02T13:48:52.128Z,36.92
2018-05-02T13:51:23.121Z,36.50
2018-05-02T13:53:53.927Z,38.99
2018-05-02T13:56:24.856Z,37.67
2018-05-02T13:58:55.677Z,39.05
2018-05-02T14:01:26.443Z,39.10
2018-05-02T14:03:57.184Z,38.56
2018-05-02T14:06:27.954Z,37.84
2018-05-02T14:08:58.779Z,36.83
2018-05-02T14:11:29.514Z,37.41
2018-05-02T14:14:00.296Z,37.02
2018-05-02T14:16:31.057Z,36.59
2018-05-02T14:19:01.919Z,38.01
2018-05-02T14:21:32.610Z,38.97
2018-05-02T14:24:03.340Z,37.82
2018-05-02T14:26:34.296Z,37.68
2018-05-02T14:29:06.263Z,37.86
2018-05-02T14:31:37.478Z,37.60
2018-05-02T14:34:09.119Z,40.44
2018-05-02T14:36:40.111Z,41.18
2018-05-02T14:39:10.895Z,40.61
2018-05-02T14:41:41.743Z,41.72
2018-05-02T14:44:12.515Z,41.58
2018-05-02T14:47:13.203Z,41.13
2018-05-02T14:49:41.557Z,40.95
2018-05-02T14:52:09.900Z,40.25
2018-05-02T14:54:38.275Z,43.34
2018-05-02T14:57:06.648Z,42.46
2018-05-02T14:59:34.988Z,41.70
2018-05-02T15:02:04.734Z,40.54
2018-05-02T15:04:33.081Z,38.92
2018-05-02T15:07:02.911Z,39.14
2018-05-02T15:09:31.500Z,41.01
2018-05-02T15:12:00.588Z,39.53
2018-05-02T15:14:28.893Z,42.73
2018-05-02T15:16:57.283Z,41.89
2018-05-02T15:19:26.483Z,37.90
2018-05-02T15:21:55.647Z,39.71
2018-05-02T15:24:24.087Z,41.10
2018-05-02T15:26:52.565Z,42.31
2018-05-02T15:29:20.960Z,42.87
2018-05-02T15:31:50.911Z,42.31
2018-05-02T15:34:19.284Z,41.93
2018-05-02T15:36:47.686Z,42.37
2018-05-02T15:39:17.024Z,42.04
2018-05-02T15:41:45.522Z,41.52
2018-05-02T15:44:13.936Z,40.90
2018-05-02T15:46:42.632Z,41.54
2018-05-02T15:49:11.057Z,41.50
2018-05-02T15:51:39.597Z,41.80
2018-05-02T15:54:08.059Z,43.09
2018-05-02T15:56:37.432Z,42.80
2018-05-02T15:59:06.022Z,43.22
2018-05-02T16:01:34.491Z,43.40
2018-05-02T16:04:04.175Z,42.41
2018-05-02T16:06:33.309Z,42.48
2018-05-02T16:09:01.939Z,42.52
2018-05-02T16:11:30.426Z,42.95
2018-05-02T16:14:00.119Z,42.61
2018-05-02T16:16:29.504Z,43.42
2018-05-02T16:18:58.577Z,43.71
2018-05-02T16:21:26.895Z,42.50
2018-05-02T16:26:30.819Z,42.76
2018-05-02T16:29:00.283Z,42.56
2018-05-02T16:31:30.259Z,42.48
2018-05-02T16:33:59.629Z,42.78
2018-05-02T16:36:29.804Z,43.16
2018-05-02T16:38:59.321Z,43.55
2018-05-02T16:41:28.459Z,43.42
2018-05-02T16:43:56.888Z,43.16
2018-05-02T16:46:25.254Z,44.32
2018-05-02T16:48:53.607Z,44.03
2018-05-02T16:51:22.403Z,44.23
2018-05-02T16:53:51.862Z,44.53
2018-05-02T16:56:20.444Z,44.74
2018-05-02T16:58:49.860Z,45.54
2018-05-02T17:01:18.668Z,45.72
2018-05-02T17:03:47.896Z,45.79
2018-05-02T17:06:21.643Z,46.16
2018-05-02T17:08:52.042Z,46.20
2018-05-02T17:11:20.469Z,46.40
2018-05-02T17:13:49.761Z,46.40
2018-05-02T17:16:19.668Z,46.68
2018-05-02T17:18:50.454Z,46.92
2018-05-02T17:21:18.793Z,46.35
2018-05-02T17:23:48.189Z,46.32
2018-05-02T17:26:17.499Z,46.18
2018-05-02T17:28:47.043Z,46.65
2018-05-02T17:31:16.081Z,47.41
2018-05-02T17:33:44.718Z,46.73
2018-05-02T17:36:13.786Z,48.98
2018-05-02T17:38:42.568Z,46.44
2018-05-02T17:41:10.983Z,46.79
2018-05-02T17:43:39.357Z,47.11
2018-05-02T17:46:07.704Z,47.47
2018-05-02T17:48:36.078Z,46.85
2018-05-02T17:51:04.442Z,47.89
2018-05-02T17:53:33.542Z,47.74
2018-05-02T17:56:02.318Z,47.92
2018-05-02T17:58:31.127Z,48.01
2018-05-02T18:00:59.636Z,48.06
2018-05-02T18:03:28.030Z,48.46
2018-05-02T18:05:56.958Z,48.64
2018-05-02T18:08:26.102Z,49.02
2018-05-02T18:10:54.436Z,48.93
2018-05-02T18:13:24.443Z,48.93
2018-05-02T18:15:52.857Z,49.06
2018-05-02T18:18:28.152Z,48.94
2018-05-02T18:20:57.344Z,49.19
2018-05-02T18:23:26.330Z,49.52
2018-05-02T18:25:54.701Z,49.66
2018-05-02T18:28:23.154Z,50.36
2018-05-02T18:30:51.906Z,50.51
2018-05-02T18:33:21.677Z,50.62
2018-05-02T18:35:50.094Z,50.72
2018-05-02T18:38:19.205Z,50.94
2018-05-02T18:40:48.368Z,51.36
2018-05-02T18:43:16.754Z,51.37
2018-05-02T18:45:45.087Z,51.70
2018-05-02T18:48:13.429Z,51.66
2018-05-02T18:50:45.386Z,51.70
2018-05-02T18:53:15.574Z,51.64
2018-05-02T18:55:44.056Z,51.87
2018-05-02T18:58:16.638Z,51.49
2018-05-02T19:00:45.039Z,51.43
2018-05-02T19:03:14.154Z,51.42
2018-05-02T19:05:43.189Z,51.79
2018-05-02T19:08:11.578Z,51.72
2018-05-02T19:10:41.044Z,51.93
2018-05-02T19:13:10.168Z,52.38
2018-05-02T19:15:38.531Z,52.62
2018-05-02T19:18:12.479Z,52.54
2018-05-02T19:20:40.784Z,52.47
2018-05-02T19:23:09.941Z,52.38
2018-05-02T19:25:43.781Z,52.37
2018-05-02T19:28:14.049Z,52.56
2018-05-02T19:30:42.421Z,52.63
2018-05-02T19:33:16.382Z,52.48
2018-05-02T19:35:44.840Z,52.44
2018-05-02T19:38:15.657Z,52.61
2018-05-02T19:40:49.383Z,52.91
2018-05-02T19:43:23.329Z,53.15
2018-05-02T19:45:52.413Z,53.59
2018-05-02T19:48:20.860Z,53.96
2018-05-02T19:50:55.654Z,53.93
2018-05-02T19:53:24.140Z,54.01
2018-05-02T19:55:52.676Z,54.45
2018-05-02T19:58:22.225Z,54.34
2018-05-02T20:00:57.167Z,54.69
2018-05-02T20:03:25.553Z,54.66
2018-05-02T20:05:53.969Z,54.41
2018-05-02T20:08:27.769Z,54.29
2018-05-02T20:11:01.770Z,54.53
2018-05-02T20:13:39.413Z,54.53
2018-05-02T20:16:09.565Z,54.58
2018-05-02T20:18:39.361Z,54.79
2018-05-02T20:21:08.327Z,55.02
2018-05-02T20:23:37.999Z,55.05
2018-05-02T20:26:07.053Z,55.04
2018-05-02T20:28:36.983Z,55.09
2018-05-02T20:31:07.781Z,54.94
2018-05-02T20:33:36.509Z,54.99
2018-05-02T20:36:04.873Z,55.19
2018-05-02T20:38:33.443Z,55.28
2018-05-02T20:41:01.799Z,55.55
2018-05-02T20:43:30.917Z,55.58
2018-05-02T20:45:59.278Z,55.51
2018-05-02T20:48:34.489Z,55.69
2018-05-02T20:51:05.002Z,55.76
2018-05-02T20:53:34.151Z,55.90
2018-05-02T20:56:03.081Z,55.85
2018-05-02T20:58:33.614Z,55.86
2018-05-02T21:01:03.847Z,56.20
2018-05-02T21:03:33.009Z,56.04
2018-05-02T21:06:02.297Z,56.32
2018-05-02T21:08:31.659Z,56.62
2018-05-02T21:11:01.371Z,56.98
2018-05-02T21:13:30.505Z,57.17
2018-05-02T21:15:58.877Z,57.21
2018-05-02T21:18:27.211Z,57.24
2018-05-02T21:20:55.542Z,57.34
2018-05-02T21:23:24.241Z,57.52
2018-05-02T21:25:52.630Z,57.17
2018-05-02T21:28:20.991Z,56.65
2018-05-02T21:30:49.594Z,55.86
2018-05-02T21:33:19.067Z,55.91
2018-05-02T21:35:48.404Z,56.25
2018-05-02T21:38:16.745Z,56.44
2018-05-02T21:40:48.514Z,56.59
2018-05-02T21:43:17.175Z,56.81
2018-05-02T21:45:45.929Z,58.42
2018-05-02T21:48:15.062Z,65.60
2018-05-02T21:50:44.376Z,71.75
2018-05-02T21:53:12.712Z,74.15
2018-05-02T21:55:44.120Z,76.41
2018-05-02T21:58:12.459Z,77.72
2018-05-02T22:00:40.789Z,78.06
2018-05-02T22:03:09.172Z,78.91
2018-05-02T22:05:37.496Z,78.81
2018-05-02T22:08:05.852Z,79.27
2018-05-02T22:10:34.988Z,79.70
2018-05-02T22:13:07.368Z,79.83
2018-05-02T22:15:36.642Z,80.81
2018-05-02T22:18:05.728Z,80.98
2018-05-02T22:20:35.076Z,81.59
2018-05-02T22:23:03.407Z,81.62
2018-05-02T22:25:33.116Z,81.98
2018-05-02T22:28:01.459Z,81.48
2018-05-02T22:30:29.779Z,81.38
2018-05-02T22:32:58.140Z,81.37
2018-05-02T22:35:27.272Z,80.70
2018-05-02T22:37:55.591Z,80.88
2018-05-02T22:40:23.957Z,80.84
2018-05-02T22:42:52.295Z,81.40
2018-05-02T22:45:20.666Z,81.16
2018-05-02T22:47:48.986Z,80.85
2018-05-02T22:50:17.332Z,80.67
2018-05-02T22:52:45.688Z,80.26
2018-05-02T22:55:14.067Z,80.23
2018-05-02T22:57:42.373Z,80.25
2018-05-02T23:00:10.748Z,80.24
2018-05-02T23:02:39.089Z,80.42
2018-05-02T23:05:07.412Z,80.59
2018-05-02T23:07:35.768Z,80.77
2018-05-02T23:10:04.119Z,80.77
2018-05-02T23:12:33.209Z,81.11
2018-05-02T23:15:02.339Z,82.87
2018-05-02T23:17:30.672Z,82.99
2018-05-02T23:19:59.760Z,82.89
2018-05-02T23:22:28.131Z,83.68
2018-05-02T23:24:56.503Z,83.99
2018-05-02T23:27:24.847Z,83.92
2018-05-02T23:29:53.221Z,84.55
2018-05-02T23:32:22.559Z,84.84
2018-05-02T23:34:50.908Z,85.12
2018-05-02T23:37:19.303Z,84.66
2018-05-02T23:39:48.040Z,84.50
2018-05-02T23:42:17.122Z,84.93
2018-05-02T23:44:46.262Z,84.62
2018-05-02T23:47:14.616Z,84.93
2018-05-02T23:49:42.954Z,84.10
2018-05-02T23:52:12.094Z,84.29
2018-05-02T23:54:41.219Z,83.64
2018-05-02T23:57:09.547Z,83.63
2018-05-02T23:59:38.312Z,83.83
